createdAt,value
2022-10-16T00:01:09.263Z,0.00
2022-10-16T00:06:09.370Z,0.00
2022-10-16T00:12:27.934Z,0.00
2022-10-16T00:17:26.609Z,0.00
2022-10-16T00:22:27.030Z,0.00
2022-10-16T00:27:26.519Z,0.00
2022-10-16T00:32:26.747Z,0.00
2022-10-16T00:37:26.408Z,0.00
2022-10-16T00:42:26.734Z,0.00
2022-10-16T00:47:26.198Z,0.00
2022-10-16T00:52:26.518Z,0.00
2022-10-16T00:57:26.199Z,0.00
2022-10-16T01:02:29.270Z,0.00
2022-10-16T01:07:26.300Z,0.00
2022-10-16T01:12:25.936Z,0.00
2022-10-16T01:17:26.064Z,0.00
2022-10-16T01:22:25.969Z,0.00
2022-10-16T01:27:26.096Z,0.00
2022-10-16T01:32:25.759Z,0.00
2022-10-16T01:37:25.769Z,0.00
2022-10-16T01:42:25.618Z,0.00
2022-10-16T01:47:25.627Z,0.00
2022-10-16T01:52:25.650Z,0.00
2022-10-16T01:57:25.410Z,0.00
2022-10-16T02:02:28.644Z,0.00
2022-10-16T02:07:25.249Z,0.00
2022-10-16T02:12:25.420Z,0.00
2022-10-16T02:17:25.191Z,0.00
2022-10-16T02:23:54.924Z,0.00
2022-10-16T02:29:02.214Z,0.00
2022-10-16T02:35:11.593Z,0.00
2022-10-16T02:40:11.321Z,0.00
2022-10-16T02:45:11.164Z,0.00
2022-10-16T02:50:11.078Z,0.00
2022-10-16T02:55:11.183Z,0.00
2022-10-16T03:00:10.931Z,0.00
2022-10-16T03:05:11.145Z,0.00
2022-10-16T03:10:10.859Z,0.00
2022-10-16T03:15:11.520Z,0.00
2022-10-16T03:21:28.424Z,0.00
2022-10-16T03:26:28.332Z,0.00
2022-10-16T03:31:28.249Z,0.00
2022-10-16T03:36:28.144Z,0.00
2022-10-16T03:41:28.013Z,0.00
2022-10-16T03:46:28.123Z,0.00
2022-10-16T03:51:28.020Z,0.00
2022-10-16T03:56:27.824Z,0.00
2022-10-16T04:01:27.894Z,0.00
2022-10-16T04:06:27.718Z,0.00
2022-10-16T04:11:30.704Z,0.00
2022-10-16T04:16:27.844Z,0.00
2022-10-16T04:21:27.729Z,0.00
2022-10-16T04:26:27.374Z,0.00
2022-10-16T04:31:27.319Z,0.00
2022-10-16T04:36:29.205Z,0.00
2022-10-16T04:41:37.978Z,0.00
2022-10-16T04:46:27.159Z,0.00
2022-10-16T04:51:27.114Z,0.00
2022-10-16T04:56:26.974Z,0.00
2022-10-16T05:01:27.054Z,0.00
2022-10-16T05:06:26.959Z,0.00
2022-10-16T05:11:29.891Z,4.00
2022-10-16T05:16:26.799Z,8.00
2022-10-16T05:21:26.809Z,12.00
2022-10-16T05:26:26.568Z,36.00
2022-10-16T05:31:26.626Z,68.00
2022-10-16T05:36:26.508Z,120.00
2022-10-16T05:41:26.476Z,216.00
2022-10-16T05:46:26.355Z,292.00
2022-10-16T05:51:26.369Z,476.00
2022-10-16T05:56:26.299Z,780.00
2022-10-16T06:01:26.199Z,1044.00
2022-10-16T06:06:26.151Z,724.00
2022-10-16T06:11:29.261Z,1716.00
2022-10-16T06:16:26.144Z,1916.00
2022-10-16T06:21:26.243Z,1816.00
2022-10-16T06:40:19.003Z,5596.00
2022-10-16T06:53:06.888Z,4212.00
2022-10-16T06:58:15.284Z,5744.00
2022-10-16T07:03:06.785Z,4096.00
2022-10-16T07:18:11.878Z,4572.00
2022-10-16T07:28:51.004Z,4716.00
2022-10-16T07:36:51.601Z,6548.00
2022-10-16T07:41:51.589Z,7844.00
2022-10-16T07:48:09.323Z,5788.00
2022-10-16T07:54:29.902Z,8116.00
2022-10-16T07:59:29.697Z,7756.00
2022-10-16T08:04:29.530Z,8256.00
2022-10-16T08:10:55.539Z,6664.00
2022-10-16T08:24:16.504Z,7204.00
2022-10-16T09:11:30.274Z,8456.00
2022-10-16T09:16:30.028Z,6212.00
2022-10-16T09:21:30.074Z,7252.00
2022-10-16T09:26:30.067Z,6936.00
2022-10-16T09:34:06.953Z,7368.00
2022-10-16T09:55:42.259Z,10964.00
2022-10-16T10:07:50.251Z,8900.00
2022-10-16T10:18:44.139Z,6648.00
2022-10-16T10:26:29.143Z,10300.00
2022-10-16T10:36:03.915Z,12080.00
2022-10-16T10:42:47.670Z,11920.00
2022-10-16T10:56:22.415Z,9272.00
2022-10-16T11:04:17.858Z,10528.00
2022-10-16T11:10:34.744Z,8044.00
2022-10-16T11:15:35.459Z,6252.00
2022-10-16T11:22:02.833Z,5616.00
2022-10-16T11:27:02.474Z,5044.00
2022-10-16T12:15:15.872Z,6536.00
2022-10-16T12:19:55.411Z,8336.00
2022-10-16T12:24:54.188Z,9076.00
2022-10-16T12:29:54.639Z,9688.00
2022-10-16T12:34:54.019Z,12768.00
2022-10-16T12:39:54.215Z,11620.00
2022-10-16T12:44:53.859Z,9684.00
2022-10-16T12:49:55.071Z,10684.00
2022-10-16T12:54:53.831Z,10172.00
2022-10-16T13:00:01.579Z,11300.00
2022-10-16T13:04:56.952Z,10340.00
2022-10-16T13:09:53.588Z,9124.00
2022-10-16T13:14:53.468Z,5144.00
2022-10-16T13:19:53.482Z,2520.00
2022-10-16T13:24:53.365Z,3712.00
2022-10-16T13:29:53.319Z,6604.00
2022-10-16T13:34:53.200Z,7752.00
2022-10-16T13:40:01.862Z,9932.00
2022-10-16T13:44:53.157Z,5128.00
2022-10-16T13:49:53.149Z,6936.00
2022-10-16T13:54:53.843Z,5012.00
2022-10-16T13:59:52.953Z,7864.00
2022-10-16T14:04:55.840Z,5120.00
2022-10-16T14:09:52.750Z,3852.00
2022-10-16T14:14:52.716Z,3928.00
2022-10-16T14:19:56.932Z,4868.00
2022-10-16T14:24:53.669Z,5728.00
2022-10-16T14:29:52.540Z,3768.00
2022-10-16T14:34:52.548Z,3172.00
2022-10-16T14:39:52.406Z,3348.00
2022-10-16T14:44:52.367Z,2476.00
2022-10-16T14:49:52.195Z,2932.00
2022-10-16T14:54:52.169Z,2740.00
2022-10-16T14:59:52.184Z,2532.00
2022-10-16T15:04:55.086Z,2892.00
2022-10-16T15:09:59.867Z,3180.00
2022-10-16T15:14:59.324Z,2220.00
2022-10-16T15:19:59.566Z,2124.00
2022-10-16T15:24:59.208Z,2436.00
2022-10-16T15:29:59.449Z,1800.00
2022-10-16T15:34:51.596Z,1620.00
2022-10-16T15:39:51.571Z,928.00
2022-10-16T15:44:51.784Z,472.00
2022-10-16T15:49:51.503Z,832.00
2022-10-16T15:54:54.110Z,728.00
2022-10-16T15:59:51.499Z,508.00
2022-10-16T16:04:54.227Z,412.00
2022-10-16T16:09:51.152Z,368.00
2022-10-16T16:16:19.704Z,272.00
2022-10-16T16:21:19.491Z,184.00
2022-10-16T16:26:19.662Z,100.00
2022-10-16T16:31:19.359Z,44.00
2022-10-16T16:36:19.405Z,20.00
2022-10-16T16:41:19.243Z,8.00
2022-10-16T16:46:19.373Z,4.00
2022-10-16T16:51:19.142Z,0.00
2022-10-16T16:56:20.408Z,0.00
2022-10-16T17:01:20.797Z,0.00
2022-10-16T17:06:22.030Z,0.00
2022-10-16T17:11:19.093Z,0.00
2022-10-16T17:16:18.884Z,0.00
2022-10-16T17:21:18.720Z,0.00
2022-10-16T17:26:18.820Z,0.00
2022-10-16T17:31:18.660Z,0.00
2022-10-16T17:36:18.573Z,0.00
2022-10-16T17:41:18.461Z,0.00
2022-10-16T17:46:18.743Z,0.00
2022-10-16T17:51:18.343Z,0.00
2022-10-16T17:56:18.444Z,0.00
2022-10-16T18:01:18.277Z,0.00
2022-10-16T18:06:23.142Z,0.00
2022-10-16T18:11:18.139Z,0.00
2022-10-16T18:16:18.193Z,0.00
2022-10-16T18:21:17.967Z,0.00
2022-10-16T18:26:17.948Z,0.00
2022-10-16T18:31:18.120Z,0.00
2022-10-16T18:36:17.779Z,0.00
2022-10-16T18:41:17.665Z,0.00
2022-10-16T18:46:17.676Z,0.00
2022-10-16T18:51:17.517Z,0.00
2022-10-16T18:56:17.490Z,0.00
2022-10-16T19:01:17.468Z,0.00
2022-10-16T19:06:20.477Z,0.00
2022-10-16T19:11:17.273Z,0.00
2022-10-16T19:16:21.388Z,0.00
2022-10-16T19:21:17.162Z,0.00
2022-10-16T19:26:17.122Z,0.00
2022-10-16T19:31:17.063Z,0.00
2022-10-16T19:36:16.981Z,0.00
2022-10-16T19:41:16.956Z,0.00
2022-10-16T19:46:16.938Z,0.00
2022-10-16T19:51:24.323Z,0.00
2022-10-16T19:56:16.689Z,0.00
2022-10-16T20:01:16.754Z,0.00
2022-10-16T20:06:26.598Z,0.00
2022-10-16T20:11:16.557Z,0.00
2022-10-16T20:16:16.546Z,0.00
2022-10-16T20:21:16.379Z,0.00
2022-10-16T20:26:16.344Z,0.00
2022-10-16T20:31:16.227Z,0.00
2022-10-16T20:36:16.333Z,0.00
2022-10-16T20:41:16.154Z,0.00
2022-10-16T20:46:16.236Z,0.00
2022-10-16T20:51:16.008Z,0.00
2022-10-16T20:56:15.988Z,0.00
2022-10-16T21:01:15.946Z,0.00
2022-10-16T21:06:18.838Z,0.00
2022-10-16T21:11:15.719Z,0.00
2022-10-16T21:16:15.708Z,0.00
2022-10-16T21:21:15.568Z,0.00
2022-10-16T21:26:15.761Z,0.00
2022-10-16T21:31:15.444Z,0.00
2022-10-16T21:36:15.412Z,0.00
2022-10-16T21:41:15.301Z,0.00
2022-10-16T21:46:15.299Z,0.00
2022-10-16T21:51:15.183Z,0.00
2022-10-16T21:56:15.140Z,0.00
2022-10-16T22:01:15.180Z,0.00
2022-10-16T22:06:18.066Z,0.00
2022-10-16T22:11:15.031Z,0.00
2022-10-16T22:16:14.901Z,0.00
2022-10-16T22:21:14.773Z,0.00
2022-10-16T22:26:14.824Z,0.00
2022-10-16T22:31:14.767Z,0.00
2022-10-16T22:36:14.709Z,0.00
2022-10-16T22:41:14.511Z,0.00
2022-10-16T22:46:14.489Z,0.00
2022-10-16T22:51:16.824Z,0.00
2022-10-16T22:56:14.338Z,0.00
2022-10-16T23:01:14.247Z,0.00
2022-10-16T23:06:17.208Z,0.00
2022-10-16T23:11:14.189Z,0.00
2022-10-16T23:16:14.318Z,0.00
2022-10-16T23:21:13.969Z,0.00
2022-10-16T23:26:13.996Z,0.00
2022-10-16T23:31:13.843Z,0.00
2022-10-16T23:36:13.793Z,0.00
2022-10-16T23:41:21.608Z,0.00
2022-10-16T23:46:21.189Z,0.00
2022-10-16T23:51:13.648Z,0.00
2022-10-16T23:56:13.643Z,0.00
